sensor_id;sensor_type;location;lat;lon;timestamp;pressure;altitude;pressure_sealevel;temperature;humidity
55490;BME280;44029;52.956;4.772;2022-09-03T00:02:06;101308.84;;;20.07;100.00
55490;BME280;44029;52.956;4.772;2022-09-03T00:07:44;101302.63;;;19.96;100.00
55490;BME280;44029;52.956;4.772;2022-09-03T00:10:21;101302.84;;;20.00;100.00
55490;BME280;44029;52.956;4.772;2022-09-03T00:12:51;101292.09;;;19.93;100.00
55490;BME280;44029;52.956;4.772;2022-09-03T00:15:21;101291.84;;;19.89;100.00
55490;BME280;44029;52.956;4.772;2022-09-03T00:17:54;101299.59;;;19.93;100.00
55490;BME280;44029;52.956;4.772;2022-09-03T00:20:32;101299.91;;;19.91;100.00
55490;BME280;44029;52.956;4.772;2022-09-03T00:23:04;101293.59;;;19.85;100.00
55490;BME280;44029;52.956;4.772;2022-09-03T00:29:02;101294.44;;;19.86;100.00
55490;BME280;44029;52.956;4.772;2022-09-03T00:31:37;101290.88;;;19.80;100.00
55490;BME280;44029;52.956;4.772;2022-09-03T00:36:44;101285.47;;;19.70;100.00
55490;BME280;44029;52.956;4.772;2022-09-03T00:39:20;101290.47;;;19.73;100.00
55490;BME280;44029;52.956;4.772;2022-09-03T00:49:55;101291.63;;;19.48;100.00
55490;BME280;44029;52.956;4.772;2022-09-03T00:58:26;101292.84;;;19.61;100.00
55490;BME280;44029;52.956;4.772;2022-09-03T01:00:56;101301.69;;;19.44;100.00
55490;BME280;44029;52.956;4.772;2022-09-03T01:03:42;101294.34;;;19.53;100.00
55490;BME280;44029;52.956;4.772;2022-09-03T01:06:23;101291.84;;;19.51;100.00
55490;BME280;44029;52.956;4.772;2022-09-03T01:09:17;101307.84;;;19.41;100.00
55490;BME280;44029;52.956;4.772;2022-09-03T01:12:32;101302.50;;;19.44;100.00
55490;BME280;44029;52.956;4.772;2022-09-03T01:23:42;101303.25;;;19.31;100.00
55490;BME280;44029;52.956;4.772;2022-09-03T01:26:27;101302.66;;;19.34;100.00
55490;BME280;44029;52.956;4.772;2022-09-03T01:32:00;101307.38;;;19.34;100.00
55490;BME280;44029;52.956;4.772;2022-09-03T01:37:55;101305.56;;;19.24;100.00
55490;BME280;44029;52.956;4.772;2022-09-03T01:40:37;101298.03;;;19.24;100.00
55490;BME280;44029;52.956;4.772;2022-09-03T01:46:24;101296.03;;;19.30;100.00
55490;BME280;44029;52.956;4.772;2022-09-03T01:51:28;101282.59;;;19.18;100.00
55490;BME280;44029;52.956;4.772;2022-09-03T01:54:22;101292.56;;;19.19;100.00
55490;BME280;44029;52.956;4.772;2022-09-03T02:00:00;101295.66;;;19.18;100.00
55490;BME280;44029;52.956;4.772;2022-09-03T02:02:28;101298.84;;;19.06;100.00
55490;BME280;44029;52.956;4.772;2022-09-03T02:07:48;101294.94;;;19.07;100.00
55490;BME280;44029;52.956;4.772;2022-09-03T02:10:44;101285.31;;;18.99;100.00
55490;BME280;44029;52.956;4.772;2022-09-03T02:13:18;101294.19;;;19.01;100.00
55490;BME280;44029;52.956;4.772;2022-09-03T02:15:46;101278.78;;;18.90;100.00
55490;BME280;44029;52.956;4.772;2022-09-03T02:18:19;101287.91;;;18.90;100.00
55490;BME280;44029;52.956;4.772;2022-09-03T02:20:46;101288.00;;;18.80;100.00
55490;BME280;44029;52.956;4.772;2022-09-03T02:23:13;101284.38;;;18.85;100.00
55490;BME280;44029;52.956;4.772;2022-09-03T02:25:41;101281.31;;;18.86;100.00
55490;BME280;44029;52.956;4.772;2022-09-03T02:28:09;101281.16;;;18.72;100.00
55490;BME280;44029;52.956;4.772;2022-09-03T02:30:35;101284.44;;;18.74;100.00
55490;BME280;44029;52.956;4.772;2022-09-03T02:33:00;101278.66;;;18.71;100.00
55490;BME280;44029;52.956;4.772;2022-09-03T02:35:26;101279.50;;;18.71;100.00
55490;BME280;44029;52.956;4.772;2022-09-03T02:37:51;101277.38;;;18.63;100.00
55490;BME280;44029;52.956;4.772;2022-09-03T02:40:17;101283.44;;;18.65;100.00
55490;BME280;44029;52.956;4.772;2022-09-03T02:42:43;101288.69;;;18.67;100.00
55490;BME280;44029;52.956;4.772;2022-09-03T02:45:28;101289.75;;;18.71;100.00
55490;BME280;44029;52.956;4.772;2022-09-03T02:47:55;101282.97;;;18.58;100.00
55490;BME280;44029;52.956;4.772;2022-09-03T02:50:23;101293.00;;;18.54;100.00
55490;BME280;44029;52.956;4.772;2022-09-03T02:52:49;101286.34;;;18.55;100.00
55490;BME280;44029;52.956;4.772;2022-09-03T02:55:15;101283.06;;;18.48;100.00
55490;BME280;44029;52.956;4.772;2022-09-03T02:57:40;101283.03;;;18.53;100.00
55490;BME280;44029;52.956;4.772;2022-09-03T03:00:06;101285.38;;;18.41;100.00
55490;BME280;44029;52.956;4.772;2022-09-03T03:02:32;101288.09;;;18.46;100.00
55490;BME280;44029;52.956;4.772;2022-09-03T03:04:58;101275.44;;;18.34;100.00
55490;BME280;44029;52.956;4.772;2022-09-03T03:07:23;101283.25;;;18.32;100.00
55490;BME280;44029;52.956;4.772;2022-09-03T03:09:50;101277.38;;;18.34;100.00
55490;BME280;44029;52.956;4.772;2022-09-03T03:12:15;101283.28;;;18.27;100.00
55490;BME280;44029;52.956;4.772;2022-09-03T03:14:41;101283.88;;;18.19;100.00
55490;BME280;44029;52.956;4.772;2022-09-03T03:17:07;101277.50;;;18.24;100.00
55490;BME280;44029;52.956;4.772;2022-09-03T03:19:33;101284.75;;;18.20;100.00
55490;BME280;44029;52.956;4.772;2022-09-03T03:21:58;101276.13;;;18.21;100.00
55490;BME280;44029;52.956;4.772;2022-09-03T03:24:23;101286.72;;;18.14;100.00
55490;BME280;44029;52.956;4.772;2022-09-03T03:26:49;101279.47;;;18.18;100.00
55490;BME280;44029;52.956;4.772;2022-09-03T03:29:15;101278.09;;;18.15;100.00
55490;BME280;44029;52.956;4.772;2022-09-03T03:31:44;101278.66;;;18.18;100.00
55490;BME280;44029;52.956;4.772;2022-09-03T03:34:10;101264.59;;;18.09;100.00
55490;BME280;44029;52.956;4.772;2022-09-03T03:36:35;101276.50;;;18.09;100.00
55490;BME280;44029;52.956;4.772;2022-09-03T03:39:01;101272.09;;;18.08;100.00
55490;BME280;44029;52.956;4.772;2022-09-03T03:41:35;101284.44;;;18.21;100.00
55490;BME280;44029;52.956;4.772;2022-09-03T03:44:02;101273.72;;;18.09;100.00
55490;BME280;44029;52.956;4.772;2022-09-03T03:46:34;101269.84;;;18.10;100.00
55490;BME280;44029;52.956;4.772;2022-09-03T03:49:00;101273.81;;;17.99;100.00
55490;BME280;44029;52.956;4.772;2022-09-03T03:51:26;101284.31;;;18.02;100.00
55490;BME280;44029;52.956;4.772;2022-09-03T03:53:55;101276.53;;;18.04;100.00
55490;BME280;44029;52.956;4.772;2022-09-03T03:56:21;101280.22;;;17.94;100.00
55490;BME280;44029;52.956;4.772;2022-09-03T03:58:47;101282.22;;;17.84;100.00
55490;BME280;44029;52.956;4.772;2022-09-03T04:01:21;101273.59;;;17.90;100.00
55490;BME280;44029;52.956;4.772;2022-09-03T04:03:46;101278.38;;;17.80;100.00
55490;BME280;44029;52.956;4.772;2022-09-03T04:06:13;101285.78;;;17.89;100.00
55490;BME280;44029;52.956;4.772;2022-09-03T04:08:41;101277.78;;;17.83;100.00
55490;BME280;44029;52.956;4.772;2022-09-03T04:11:08;101275.00;;;17.88;100.00
55490;BME280;44029;52.956;4.772;2022-09-03T04:13:36;101275.59;;;17.85;100.00
55490;BME280;44029;52.956;4.772;2022-09-03T04:16:04;101280.34;;;17.74;100.00
55490;BME280;44029;52.956;4.772;2022-09-03T04:18:30;101275.38;;;17.71;100.00
55490;BME280;44029;52.956;4.772;2022-09-03T04:21:08;101270.38;;;17.73;100.00
55490;BME280;44029;52.956;4.772;2022-09-03T04:23:36;101265.41;;;17.70;100.00
55490;BME280;44029;52.956;4.772;2022-09-03T04:26:02;101282.84;;;17.75;100.00
55490;BME280;44029;52.956;4.772;2022-09-03T04:28:28;101270.94;;;17.75;100.00
55490;BME280;44029;52.956;4.772;2022-09-03T04:30:53;101275.69;;;17.69;100.00
55490;BME280;44029;52.956;4.772;2022-09-03T04:33:19;101276.78;;;17.68;100.00
55490;BME280;44029;52.956;4.772;2022-09-03T04:35:45;101273.19;;;17.68;100.00
55490;BME280;44029;52.956;4.772;2022-09-03T04:38:10;101277.88;;;17.67;100.00
55490;BME280;44029;52.956;4.772;2022-09-03T04:40:36;101277.97;;;17.57;100.00
55490;BME280;44029;52.956;4.772;2022-09-03T04:43:02;101282.88;;;17.65;100.00
55490;BME280;44029;52.956;4.772;2022-09-03T04:45:28;101282.13;;;17.54;100.00
55490;BME280;44029;52.956;4.772;2022-09-03T04:48:03;101274.56;;;17.65;100.00
55490;BME280;44029;52.956;4.772;2022-09-03T04:50:31;101283.22;;;17.58;100.00
55490;BME280;44029;52.956;4.772;2022-09-03T04:53:02;101269.91;;;17.61;100.00
55490;BME280;44029;52.956;4.772;2022-09-03T04:55:35;101265.47;;;17.59;100.00
55490;BME280;44029;52.956;4.772;2022-09-03T04:58:01;101272.19;;;17.48;100.00
55490;BME280;44029;52.956;4.772;2022-09-03T05:00:26;101271.34;;;17.53;100.00
55490;BME280;44029;52.956;4.772;2022-09-03T05:02:51;101270.81;;;17.51;100.00
55490;BME280;44029;52.956;4.772;2022-09-03T05:05:17;101268.88;;;17.51;100.00
55490;BME280;44029;52.956;4.772;2022-09-03T05:07:43;101272.22;;;17.43;100.00
55490;BME280;44029;52.956;4.772;2022-09-03T05:10:10;101269.69;;;17.52;100.00
55490;BME280;44029;52.956;4.772;2022-09-03T05:12:45;101276.09;;;17.47;100.00
55490;BME280;44029;52.956;4.772;2022-09-03T05:15:12;101278.78;;;17.57;100.00
55490;BME280;44029;52.956;4.772;2022-09-03T05:17:37;101274.06;;;17.58;100.00
55490;BME280;44029;52.956;4.772;2022-09-03T05:20:04;101276.78;;;17.68;100.00
55490;BME280;44029;52.956;4.772;2022-09-03T05:22:33;101270.00;;;17.90;100.00
55490;BME280;44029;52.956;4.772;2022-09-03T05:24:58;101260.50;;;18.84;100.00
55490;BME280;44029;52.956;4.772;2022-09-03T05:27:23;101252.88;;;19.57;100.00
55490;BME280;44029;52.956;4.772;2022-09-03T05:29:49;101254.16;;;19.64;100.00
55490;BME280;44029;52.956;4.772;2022-09-03T05:32:14;101249.97;;;19.86;100.00
55490;BME280;44029;52.956;4.772;2022-09-03T05:34:41;101249.56;;;19.93;100.00
55490;BME280;44029;52.956;4.772;2022-09-03T05:37:07;101246.94;;;20.15;100.00
55490;BME280;44029;52.956;4.772;2022-09-03T05:39:32;101246.06;;;20.34;100.00
55490;BME280;44029;52.956;4.772;2022-09-03T05:41:58;101243.69;;;20.41;100.00
55490;BME280;44029;52.956;4.772;2022-09-03T05:44:23;101239.59;;;20.52;100.00
55490;BME280;44029;52.956;4.772;2022-09-03T05:46:49;101244.25;;;20.71;100.00
55490;BME280;44029;52.956;4.772;2022-09-03T05:49:15;101254.69;;;20.65;100.00
55490;BME280;44029;52.956;4.772;2022-09-03T05:51:41;101243.94;;;20.58;100.00
55490;BME280;44029;52.956;4.772;2022-09-03T05:54:08;101245.88;;;21.13;100.00
55490;BME280;44029;52.956;4.772;2022-09-03T05:56:35;101249.75;;;20.76;100.00
55490;BME280;44029;52.956;4.772;2022-09-03T05:59:03;101248.47;;;20.07;100.00
55490;BME280;44029;52.956;4.772;2022-09-03T06:01:32;101249.47;;;19.60;100.00
55490;BME280;44029;52.956;4.772;2022-09-03T06:04:03;101246.25;;;20.23;100.00
55490;BME280;44029;52.956;4.772;2022-09-03T06:06:31;101248.28;;;20.92;100.00
55490;BME280;44029;52.956;4.772;2022-09-03T06:08:59;101253.13;;;21.14;100.00
55490;BME280;44029;52.956;4.772;2022-09-03T06:11:25;101251.31;;;21.83;100.00
55490;BME280;44029;52.956;4.772;2022-09-03T06:13:58;101251.69;;;21.90;100.00
55490;BME280;44029;52.956;4.772;2022-09-03T06:16:26;101233.97;;;22.17;100.00
55490;BME280;44029;52.956;4.772;2022-09-03T06:18:52;101253.31;;;22.13;100.00
55490;BME280;44029;52.956;4.772;2022-09-03T06:21:18;101238.03;;;22.73;100.00
55490;BME280;44029;52.956;4.772;2022-09-03T06:23:48;101236.69;;;22.62;100.00
55490;BME280;44029;52.956;4.772;2022-09-03T06:26:16;101237.75;;;22.92;100.00
55490;BME280;44029;52.956;4.772;2022-09-03T06:28:42;101238.81;;;22.56;100.00
55490;BME280;44029;52.956;4.772;2022-09-03T06:31:10;101245.34;;;21.98;100.00
55490;BME280;44029;52.956;4.772;2022-09-03T06:33:37;101255.91;;;20.73;100.00
55490;BME280;44029;52.956;4.772;2022-09-03T06:36:05;101251.09;;;19.99;100.00
55490;BME280;44029;52.956;4.772;2022-09-03T06:38:32;101256.94;;;19.83;100.00
55490;BME280;44029;52.956;4.772;2022-09-03T06:41:01;101256.56;;;19.71;100.00
55490;BME280;44029;52.956;4.772;2022-09-03T06:43:30;101262.19;;;19.85;100.00
55490;BME280;44029;52.956;4.772;2022-09-03T06:45:57;101259.56;;;19.56;100.00
55490;BME280;44029;52.956;4.772;2022-09-03T06:48:23;101264.06;;;19.51;100.00
55490;BME280;44029;52.956;4.772;2022-09-03T06:53:22;101265.94;;;19.56;100.00
55490;BME280;44029;52.956;4.772;2022-09-03T06:56:01;101258.28;;;19.48;100.00
55490;BME280;44029;52.956;4.772;2022-09-03T06:58:29;101260.75;;;19.68;100.00
55490;BME280;44029;52.956;4.772;2022-09-03T07:01:15;101267.97;;;19.50;100.00
55490;BME280;44029;52.956;4.772;2022-09-03T07:03:42;101256.84;;;19.50;100.00
55490;BME280;44029;52.956;4.772;2022-09-03T07:06:10;101258.03;;;19.63;100.00
55490;BME280;44029;52.956;4.772;2022-09-03T07:08:36;101256.78;;;19.75;100.00
55490;BME280;44029;52.956;4.772;2022-09-03T07:11:04;101261.53;;;19.74;100.00
55490;BME280;44029;52.956;4.772;2022-09-03T07:13:37;101267.00;;;19.79;100.00
55490;BME280;44029;52.956;4.772;2022-09-03T07:16:06;101250.03;;;19.81;100.00
55490;BME280;44029;52.956;4.772;2022-09-03T07:18:32;101263.47;;;19.55;100.00
55490;BME280;44029;52.956;4.772;2022-09-03T07:21:02;101262.56;;;19.97;100.00
55490;BME280;44029;52.956;4.772;2022-09-03T07:23:29;101265.13;;;19.94;100.00
55490;BME280;44029;52.956;4.772;2022-09-03T07:26:01;101266.19;;;20.12;100.00
55490;BME280;44029;52.956;4.772;2022-09-03T07:28:27;101262.97;;;20.37;100.00
55490;BME280;44029;52.956;4.772;2022-09-03T07:30:54;101270.84;;;20.49;100.00
55490;BME280;44029;52.956;4.772;2022-09-03T07:33:24;101270.63;;;20.59;100.00
55490;BME280;44029;52.956;4.772;2022-09-03T07:35:50;101268.19;;;20.72;100.00
55490;BME280;44029;52.956;4.772;2022-09-03T07:38:17;101267.88;;;21.29;100.00
55490;BME280;44029;52.956;4.772;2022-09-03T07:40:44;101261.69;;;21.91;100.00
55490;BME280;44029;52.956;4.772;2022-09-03T07:43:11;101258.03;;;22.58;100.00
55490;BME280;44029;52.956;4.772;2022-09-03T07:45:36;101263.13;;;22.65;100.00
55490;BME280;44029;52.956;4.772;2022-09-03T07:48:03;101255.69;;;23.00;100.00
55490;BME280;44029;52.956;4.772;2022-09-03T07:50:29;101259.41;;;23.27;100.00
55490;BME280;44029;52.956;4.772;2022-09-03T07:52:58;101264.00;;;23.14;100.00
55490;BME280;44029;52.956;4.772;2022-09-03T07:55:24;101257.25;;;23.24;100.00
55490;BME280;44029;52.956;4.772;2022-09-03T07:57:55;101263.84;;;23.28;100.00
55490;BME280;44029;52.956;4.772;2022-09-03T08:00:20;101261.75;;;23.51;100.00
55490;BME280;44029;52.956;4.772;2022-09-03T08:02:45;101259.25;;;23.41;100.00
55490;BME280;44029;52.956;4.772;2022-09-03T08:05:11;101261.69;;;23.16;100.00
55490;BME280;44029;52.956;4.772;2022-09-03T08:07:36;101259.97;;;22.97;100.00
55490;BME280;44029;52.956;4.772;2022-09-03T08:10:02;101258.72;;;23.12;100.00
55490;BME280;44029;52.956;4.772;2022-09-03T08:12:27;101261.38;;;23.18;100.00
55490;BME280;44029;52.956;4.772;2022-09-03T08:14:53;101266.63;;;23.10;100.00
55490;BME280;44029;52.956;4.772;2022-09-03T08:17:18;101268.91;;;23.08;100.00
55490;BME280;44029;52.956;4.772;2022-09-03T08:19:44;101262.38;;;22.73;100.00
55490;BME280;44029;52.956;4.772;2022-09-03T08:22:10;101270.44;;;22.83;100.00
55490;BME280;44029;52.956;4.772;2022-09-03T08:24:35;101261.09;;;22.88;100.00
55490;BME280;44029;52.956;4.772;2022-09-03T08:27:01;101271.25;;;23.24;100.00
55490;BME280;44029;52.956;4.772;2022-09-03T08:29:27;101267.81;;;23.27;100.00
55490;BME280;44029;52.956;4.772;2022-09-03T08:31:52;101269.75;;;23.26;100.00
55490;BME280;44029;52.956;4.772;2022-09-03T08:34:18;101276.88;;;23.50;100.00
55490;BME280;44029;52.956;4.772;2022-09-03T08:36:44;101278.03;;;23.66;100.00
55490;BME280;44029;52.956;4.772;2022-09-03T08:39:11;101269.81;;;23.96;100.00
55490;BME280;44029;52.956;4.772;2022-09-03T08:44:27;101271.63;;;23.92;100.00
55490;BME280;44029;52.956;4.772;2022-09-03T08:47:27;101272.78;;;24.00;100.00
55490;BME280;44029;52.956;4.772;2022-09-03T08:52:29;101281.16;;;23.73;100.00
55490;BME280;44029;52.956;4.772;2022-09-03T08:57:45;101279.84;;;23.71;100.00
55490;BME280;44029;52.956;4.772;2022-09-03T09:00:11;101283.31;;;23.94;100.00
55490;BME280;44029;52.956;4.772;2022-09-03T09:02:57;101279.69;;;24.02;100.00
55490;BME280;44029;52.956;4.772;2022-09-03T09:05:42;101277.22;;;23.83;100.00
55490;BME280;44029;52.956;4.772;2022-09-03T09:08:34;101285.13;;;24.07;100.00
55490;BME280;44029;52.956;4.772;2022-09-03T09:11:18;101284.94;;;23.34;100.00
55490;BME280;44029;52.956;4.772;2022-09-03T09:13:57;101289.00;;;22.79;100.00
55490;BME280;44029;52.956;4.772;2022-09-03T09:19:33;101293.50;;;22.57;100.00
55490;BME280;44029;52.956;4.772;2022-09-03T09:22:02;101298.84;;;22.23;100.00
55490;BME280;44029;52.956;4.772;2022-09-03T09:24:37;101292.03;;;22.60;100.00
55490;BME280;44029;52.956;4.772;2022-09-03T09:27:05;101289.81;;;22.80;100.00
55490;BME280;44029;52.956;4.772;2022-09-03T09:29:32;101302.53;;;22.32;100.00
55490;BME280;44029;52.956;4.772;2022-09-03T09:31:59;101299.81;;;22.41;100.00
55490;BME280;44029;52.956;4.772;2022-09-03T09:34:25;101293.41;;;22.40;100.00
55490;BME280;44029;52.956;4.772;2022-09-03T09:36:53;101288.38;;;22.51;100.00
55490;BME280;44029;52.956;4.772;2022-09-03T09:39:18;101284.59;;;22.55;100.00
55490;BME280;44029;52.956;4.772;2022-09-03T09:44:32;101295.31;;;22.31;100.00
55490;BME280;44029;52.956;4.772;2022-09-03T09:47:06;101288.19;;;22.25;100.00
55490;BME280;44029;52.956;4.772;2022-09-03T09:52:13;101291.38;;;22.09;100.00
55490;BME280;44029;52.956;4.772;2022-09-03T09:54:40;101286.97;;;22.17;100.00
55490;BME280;44029;52.956;4.772;2022-09-03T09:57:13;101284.19;;;21.94;100.00
55490;BME280;44029;52.956;4.772;2022-09-03T09:59:42;101280.59;;;21.94;100.00
55490;BME280;44029;52.956;4.772;2022-09-03T10:02:12;101285.66;;;22.14;100.00
55490;BME280;44029;52.956;4.772;2022-09-03T10:04:39;101280.06;;;22.14;100.00
55490;BME280;44029;52.956;4.772;2022-09-03T10:07:20;101282.19;;;22.31;100.00
55490;BME280;44029;52.956;4.772;2022-09-03T10:09:57;101278.75;;;22.66;100.00
55490;BME280;44029;52.956;4.772;2022-09-03T10:12:26;101283.38;;;22.16;100.00
55490;BME280;44029;52.956;4.772;2022-09-03T10:14:58;101275.84;;;22.39;100.00
55490;BME280;44029;52.956;4.772;2022-09-03T10:20:59;101282.22;;;21.95;100.00
55490;BME280;44029;52.956;4.772;2022-09-03T10:23:34;101286.28;;;22.11;100.00
55490;BME280;44029;52.956;4.772;2022-09-03T10:26:12;101285.28;;;22.07;100.00
55490;BME280;44029;52.956;4.772;2022-09-03T10:28:41;101287.44;;;22.33;100.00
55490;BME280;44029;52.956;4.772;2022-09-03T10:36:30;101279.44;;;22.17;100.00
55490;BME280;44029;52.956;4.772;2022-09-03T10:44:13;101269.16;;;22.04;100.00
55490;BME280;44029;52.956;4.772;2022-09-03T10:52:14;101266.50;;;22.22;100.00
55490;BME280;44029;52.956;4.772;2022-09-03T10:54:58;101269.69;;;22.60;100.00
55490;BME280;44029;52.956;4.772;2022-09-03T11:00:19;101258.97;;;22.93;100.00
55490;BME280;44029;52.956;4.772;2022-09-03T11:05:40;101259.59;;;22.82;100.00
55490;BME280;44029;52.956;4.772;2022-09-03T11:10:56;101277.78;;;22.70;100.00
55490;BME280;44029;52.956;4.772;2022-09-03T11:13:36;101269.34;;;22.53;100.00
55490;BME280;44029;52.956;4.772;2022-09-03T11:16:08;101269.41;;;22.70;100.00
55490;BME280;44029;52.956;4.772;2022-09-03T11:21:10;101274.25;;;22.47;100.00
55490;BME280;44029;52.956;4.772;2022-09-03T11:23:40;101265.84;;;22.47;100.00
55490;BME280;44029;52.956;4.772;2022-09-03T11:26:08;101273.13;;;22.57;100.00
55490;BME280;44029;52.956;4.772;2022-09-03T11:31:15;101271.19;;;22.66;100.00
55490;BME280;44029;52.956;4.772;2022-09-03T11:34:25;101272.25;;;22.79;100.00
55490;BME280;44029;52.956;4.772;2022-09-03T11:37:03;101274.59;;;22.94;100.00
55490;BME280;44029;52.956;4.772;2022-09-03T11:39:34;101274.41;;;22.82;100.00
55490;BME280;44029;52.956;4.772;2022-09-03T11:42:09;101272.84;;;22.67;100.00
55490;BME280;44029;52.956;4.772;2022-09-03T11:44:36;101263.19;;;22.73;100.00
55490;BME280;44029;52.956;4.772;2022-09-03T11:47:13;101268.19;;;22.94;100.00
55490;BME280;44029;52.956;4.772;2022-09-03T11:49:48;101271.53;;;23.13;100.00
55490;BME280;44029;52.956;4.772;2022-09-03T11:52:25;101269.97;;;22.98;100.00
55490;BME280;44029;52.956;4.772;2022-09-03T11:54:51;101265.06;;;22.95;100.00
55490;BME280;44029;52.956;4.772;2022-09-03T11:57:40;101264.81;;;23.14;100.00
55490;BME280;44029;52.956;4.772;2022-09-03T12:00:12;101270.56;;;23.18;100.00
55490;BME280;44029;52.956;4.772;2022-09-03T12:02:47;101263.81;;;23.10;100.00
55490;BME280;44029;52.956;4.772;2022-09-03T12:05:26;101275.50;;;23.12;100.00
55490;BME280;44029;52.956;4.772;2022-09-03T12:11:28;101274.19;;;23.19;100.00
55490;BME280;44029;52.956;4.772;2022-09-03T12:14:08;101265.81;;;23.27;100.00
55490;BME280;44029;52.956;4.772;2022-09-03T12:16:49;101266.97;;;23.35;100.00
55490;BME280;44029;52.956;4.772;2022-09-03T12:19:37;101258.78;;;23.47;100.00
55490;BME280;44029;52.956;4.772;2022-09-03T12:22:05;101264.88;;;23.58;100.00
55490;BME280;44029;52.956;4.772;2022-09-03T12:24:30;101261.09;;;23.98;100.00
55490;BME280;44029;52.956;4.772;2022-09-03T12:27:02;101271.16;;;23.90;100.00
55490;BME280;44029;52.956;4.772;2022-09-03T12:29:29;101265.69;;;24.11;100.00
55490;BME280;44029;52.956;4.772;2022-09-03T12:31:55;101265.69;;;24.11;100.00
55490;BME280;44029;52.956;4.772;2022-09-03T12:34:30;101266.53;;;24.03;100.00
55490;BME280;44029;52.956;4.772;2022-09-03T12:36:56;101262.22;;;24.05;100.00
55490;BME280;44029;52.956;4.772;2022-09-03T12:39:27;101265.03;;;24.14;100.00
55490;BME280;44029;52.956;4.772;2022-09-03T12:44:30;101256.63;;;24.14;100.00
55490;BME280;44029;52.956;4.772;2022-09-03T12:47:05;101257.75;;;24.22;100.00
55490;BME280;44029;52.956;4.772;2022-09-03T12:49:36;101252.66;;;24.15;100.00
55490;BME280;44029;52.956;4.772;2022-09-03T12:52:08;101252.31;;;24.25;100.00
55490;BME280;44029;52.956;4.772;2022-09-03T12:54:42;101260.06;;;24.28;100.00
55490;BME280;44029;52.956;4.772;2022-09-03T12:57:14;101250.66;;;24.33;100.00
55490;BME280;44029;52.956;4.772;2022-09-03T12:59:41;101261.03;;;24.33;100.00
55490;BME280;44029;52.956;4.772;2022-09-03T13:02:18;101252.06;;;24.48;100.00
55490;BME280;44029;52.956;4.772;2022-09-03T13:04:45;101250.97;;;24.40;100.00
55490;BME280;44029;52.956;4.772;2022-09-03T13:07:22;101262.81;;;24.37;100.00
55490;BME280;44029;52.956;4.772;2022-09-03T13:09:48;101254.09;;;24.39;100.00
55490;BME280;44029;52.956;4.772;2022-09-03T13:12:29;101260.16;;;24.49;100.00
55490;BME280;44029;52.956;4.772;2022-09-03T13:14:55;101253.28;;;24.38;98.71
55490;BME280;44029;52.956;4.772;2022-09-03T13:23:16;101256.34;;;24.63;100.00
55490;BME280;44029;52.956;4.772;2022-09-03T13:28:37;101249.88;;;24.71;99.83
55490;BME280;44029;52.956;4.772;2022-09-03T13:31:28;101249.75;;;24.59;98.11
55490;BME280;44029;52.956;4.772;2022-09-03T13:34:04;101252.31;;;24.73;100.00
55490;BME280;44029;52.956;4.772;2022-09-03T13:37:26;101250.69;;;24.72;100.00
55490;BME280;44029;52.956;4.772;2022-09-03T13:39:38;101249.81;;;24.80;99.66
55490;BME280;44029;52.956;4.772;2022-09-03T13:42:12;101253.50;;;24.72;97.39
55490;BME280;44029;52.956;4.772;2022-09-03T13:44:44;101243.06;;;24.81;95.92
55490;BME280;44029;52.956;4.772;2022-09-03T13:50:10;101247.16;;;24.83;99.68
55490;BME280;44029;52.956;4.772;2022-09-03T13:52:55;101241.72;;;24.87;96.95
55490;BME280;44029;52.956;4.772;2022-09-03T13:55:45;101250.66;;;24.80;96.59
55490;BME280;44029;52.956;4.772;2022-09-03T13:58:28;101243.22;;;24.84;95.41
55490;BME280;44029;52.956;4.772;2022-09-03T14:03:37;101243.44;;;25.00;94.18
55490;BME280;44029;52.956;4.772;2022-09-03T14:06:17;101234.16;;;24.87;92.61
55490;BME280;44029;52.956;4.772;2022-09-03T14:09:02;101234.69;;;25.02;93.83
55490;BME280;44029;52.956;4.772;2022-09-03T14:17:04;101236.66;;;24.80;92.98
55490;BME280;44029;52.956;4.772;2022-09-03T14:19:42;101244.34;;;24.92;95.42
55490;BME280;44029;52.956;4.772;2022-09-03T14:22:21;101230.28;;;25.01;93.79
55490;BME280;44029;52.956;4.772;2022-09-03T14:27:22;101239.84;;;25.00;97.14
55490;BME280;44029;52.956;4.772;2022-09-03T14:29:53;101241.56;;;24.83;95.45
55490;BME280;44029;52.956;4.772;2022-09-03T14:32:36;101238.72;;;24.92;91.56
55490;BME280;44029;52.956;4.772;2022-09-03T14:41:02;101229.97;;;24.94;98.43
55490;BME280;44029;52.956;4.772;2022-09-03T14:43:58;101229.53;;;24.83;100.00
55490;BME280;44029;52.956;4.772;2022-09-03T14:46:42;101229.66;;;24.65;100.00
55490;BME280;44029;52.956;4.772;2022-09-03T14:49:24;101235.88;;;24.71;100.00
55490;BME280;44029;52.956;4.772;2022-09-03T14:52:19;101233.88;;;24.72;100.00
55490;BME280;44029;52.956;4.772;2022-09-03T15:11:25;101248.28;;;24.91;100.00
55490;BME280;44029;52.956;4.772;2022-09-03T15:13:54;101246.50;;;24.86;100.00
55490;BME280;44029;52.956;4.772;2022-09-03T15:19:34;101247.16;;;24.83;100.00
55490;BME280;44029;52.956;4.772;2022-09-03T15:24:54;101247.50;;;24.82;100.00
55490;BME280;44029;52.956;4.772;2022-09-03T15:30:17;101258.09;;;24.76;100.00
55490;BME280;44029;52.956;4.772;2022-09-03T15:35:51;101264.25;;;24.61;100.00
55490;BME280;44029;52.956;4.772;2022-09-03T15:41:01;101270.38;;;24.45;100.00
55490;BME280;44029;52.956;4.772;2022-09-03T15:43:31;101267.09;;;24.43;100.00
55490;BME280;44029;52.956;4.772;2022-09-03T15:54:45;101264.97;;;24.31;100.00
55490;BME280;44029;52.956;4.772;2022-09-03T15:57:17;101260.56;;;24.22;100.00